sensor_id;sensor_type;location;lat;lon;timestamp;temperature;humidity
37460;DHT22;23318;50.966;5.284;2022-08-01T00:01:05;20.20;99.90
37460;DHT22;23318;50.966;5.284;2022-08-01T00:03:31;20.00;99.90
37460;DHT22;23318;50.966;5.284;2022-08-01T00:05:57;20.00;99.90
37460;DHT22;23318;50.966;5.284;2022-08-01T00:08:22;20.00;99.90
37460;DHT22;23318;50.966;5.284;2022-08-01T00:10:48;20.00;99.90
37460;DHT22;23318;50.966;5.284;2022-08-01T00:13:14;20.10;99.90
37460;DHT22;23318;50.966;5.284;2022-08-01T00:15:39;20.30;99.90
37460;DHT22;23318;50.966;5.284;2022-08-01T00:18:05;20.30;99.90
37460;DHT22;23318;50.966;5.284;2022-08-01T00:20:30;20.20;99.90
37460;DHT22;23318;50.966;5.284;2022-08-01T00:22:56;20.20;99.90
37460;DHT22;23318;50.966;5.284;2022-08-01T00:25:22;20.20;99.90
37460;DHT22;23318;50.966;5.284;2022-08-01T00:27:47;20.10;99.90
37460;DHT22;23318;50.966;5.284;2022-08-01T00:30:13;20.30;99.90
37460;DHT22;23318;50.966;5.284;2022-08-01T00:32:39;20.60;99.90
37460;DHT22;23318;50.966;5.284;2022-08-01T00:35:05;20.60;99.90
37460;DHT22;23318;50.966;5.284;2022-08-01T00:37:31;20.50;99.90
37460;DHT22;23318;50.966;5.284;2022-08-01T00:39:59;20.50;99.90
37460;DHT22;23318;50.966;5.284;2022-08-01T00:42:25;20.50;99.90
37460;DHT22;23318;50.966;5.284;2022-08-01T00:44:51;20.60;99.90
37460;DHT22;23318;50.966;5.284;2022-08-01T00:47:17;20.60;99.90
37460;DHT22;23318;50.966;5.284;2022-08-01T00:49:42;20.70;99.90
37460;DHT22;23318;50.966;5.284;2022-08-01T00:52:08;20.70;99.90
37460;DHT22;23318;50.966;5.284;2022-08-01T00:54:35;20.60;99.90
37460;DHT22;23318;50.966;5.284;2022-08-01T00:57:01;20.70;99.90
37460;DHT22;23318;50.966;5.284;2022-08-01T00:59:27;20.70;99.90
37460;DHT22;23318;50.966;5.284;2022-08-01T01:01:53;20.50;99.90
37460;DHT22;23318;50.966;5.284;2022-08-01T01:04:19;20.40;99.90
37460;DHT22;23318;50.966;5.284;2022-08-01T01:09:52;20.60;99.90
37460;DHT22;23318;50.966;5.284;2022-08-01T01:12:38;20.60;99.90
37460;DHT22;23318;50.966;5.284;2022-08-01T01:15:16;20.60;99.90
37460;DHT22;23318;50.966;5.284;2022-08-01T01:21:02;20.90;99.90
37460;DHT22;23318;50.966;5.284;2022-08-01T01:26:57;20.80;99.90
37460;DHT22;23318;50.966;5.284;2022-08-01T01:29:38;20.80;99.90
37460;DHT22;23318;50.966;5.284;2022-08-01T01:32:19;20.80;99.90
37460;DHT22;23318;50.966;5.284;2022-08-01T01:34:48;20.80;99.90
37460;DHT22;23318;50.966;5.284;2022-08-01T01:37:18;20.60;99.90
37460;DHT22;23318;50.966;5.284;2022-08-01T01:39:48;20.60;99.90
37460;DHT22;23318;50.966;5.284;2022-08-01T01:42:15;20.70;99.90
37460;DHT22;23318;50.966;5.284;2022-08-01T01:44:43;20.90;99.90
37460;DHT22;23318;50.966;5.284;2022-08-01T01:47:13;20.70;99.90
37460;DHT22;23318;50.966;5.284;2022-08-01T01:49:40;20.50;99.90
37460;DHT22;23318;50.966;5.284;2022-08-01T01:52:10;20.50;99.90
37460;DHT22;23318;50.966;5.284;2022-08-01T01:54:50;20.40;99.90
37460;DHT22;23318;50.966;5.284;2022-08-01T01:57:18;20.50;99.90
37460;DHT22;23318;50.966;5.284;2022-08-01T01:59:45;20.50;99.90
37460;DHT22;23318;50.966;5.284;2022-08-01T02:02:12;20.50;99.90
37460;DHT22;23318;50.966;5.284;2022-08-01T02:04:42;20.60;99.90
37460;DHT22;23318;50.966;5.284;2022-08-01T02:07:09;20.50;99.90
37460;DHT22;23318;50.966;5.284;2022-08-01T02:09:37;21.00;99.90
37460;DHT22;23318;50.966;5.284;2022-08-01T02:12:03;21.00;99.90
37460;DHT22;23318;50.966;5.284;2022-08-01T02:14:33;20.90;99.90
37460;DHT22;23318;50.966;5.284;2022-08-01T02:17:00;20.70;99.90
37460;DHT22;23318;50.966;5.284;2022-08-01T02:19:29;20.70;99.90
37460;DHT22;23318;50.966;5.284;2022-08-01T02:22:07;20.70;99.90
37460;DHT22;23318;50.966;5.284;2022-08-01T02:24:42;20.50;99.90
37460;DHT22;23318;50.966;5.284;2022-08-01T02:27:13;20.60;99.90
37460;DHT22;23318;50.966;5.284;2022-08-01T02:29:43;20.50;99.90
37460;DHT22;23318;50.966;5.284;2022-08-01T02:32:20;20.70;99.90
37460;DHT22;23318;50.966;5.284;2022-08-01T02:34:47;20.80;99.90
37460;DHT22;23318;50.966;5.284;2022-08-01T02:37:19;20.80;99.90
37460;DHT22;23318;50.966;5.284;2022-08-01T02:39:48;20.60;99.90
37460;DHT22;23318;50.966;5.284;2022-08-01T02:42:18;20.50;99.90
37460;DHT22;23318;50.966;5.284;2022-08-01T02:44:44;20.80;99.90
37460;DHT22;23318;50.966;5.284;2022-08-01T02:47:12;20.80;99.90
37460;DHT22;23318;50.966;5.284;2022-08-01T02:49:44;20.90;99.90
37460;DHT22;23318;50.966;5.284;2022-08-01T02:52:13;20.60;99.90
37460;DHT22;23318;50.966;5.284;2022-08-01T02:54:40;20.50;99.90
37460;DHT22;23318;50.966;5.284;2022-08-01T02:57:08;20.60;99.90
37460;DHT22;23318;50.966;5.284;2022-08-01T02:59:37;20.60;99.90
37460;DHT22;23318;50.966;5.284;2022-08-01T03:02:03;20.50;99.90
37460;DHT22;23318;50.966;5.284;2022-08-01T03:04:32;20.50;99.90
37460;DHT22;23318;50.966;5.284;2022-08-01T03:07:00;20.40;99.90
37460;DHT22;23318;50.966;5.284;2022-08-01T03:09:28;20.30;99.90
37460;DHT22;23318;50.966;5.284;2022-08-01T03:11:58;20.40;99.90
37460;DHT22;23318;50.966;5.284;2022-08-01T03:14:25;20.60;99.90
37460;DHT22;23318;50.966;5.284;2022-08-01T03:16:52;20.60;99.90
37460;DHT22;23318;50.966;5.284;2022-08-01T03:19:19;20.50;99.90
37460;DHT22;23318;50.966;5.284;2022-08-01T03:21:47;20.50;99.90
37460;DHT22;23318;50.966;5.284;2022-08-01T03:24:14;20.40;99.90
37460;DHT22;23318;50.966;5.284;2022-08-01T03:26:41;20.30;99.90
37460;DHT22;23318;50.966;5.284;2022-08-01T03:29:12;20.40;99.90
37460;DHT22;23318;50.966;5.284;2022-08-01T03:31:40;20.50;99.90
37460;DHT22;23318;50.966;5.284;2022-08-01T03:34:08;20.60;99.90
37460;DHT22;23318;50.966;5.284;2022-08-01T03:36:41;20.70;99.90
37460;DHT22;23318;50.966;5.284;2022-08-01T03:39:09;20.50;99.90
37460;DHT22;23318;50.966;5.284;2022-08-01T03:41:39;20.50;99.90
37460;DHT22;23318;50.966;5.284;2022-08-01T03:44:16;20.60;99.90
37460;DHT22;23318;50.966;5.284;2022-08-01T03:46:47;20.60;99.90
37460;DHT22;23318;50.966;5.284;2022-08-01T03:49:18;20.50;99.90
37460;DHT22;23318;50.966;5.284;2022-08-01T03:51:49;20.30;99.90
37460;DHT22;23318;50.966;5.284;2022-08-01T03:54:24;20.40;99.90
37460;DHT22;23318;50.966;5.284;2022-08-01T03:56:53;20.60;99.90
37460;DHT22;23318;50.966;5.284;2022-08-01T03:59:20;20.50;99.90
37460;DHT22;23318;50.966;5.284;2022-08-01T04:01:48;20.40;99.90
37460;DHT22;23318;50.966;5.284;2022-08-01T04:04:14;20.30;99.90
37460;DHT22;23318;50.966;5.284;2022-08-01T04:06:41;20.10;99.90
37460;DHT22;23318;50.966;5.284;2022-08-01T04:09:07;20.20;99.90
37460;DHT22;23318;50.966;5.284;2022-08-01T04:11:34;20.30;99.90
37460;DHT22;23318;50.966;5.284;2022-08-01T04:13:59;20.50;99.90
37460;DHT22;23318;50.966;5.284;2022-08-01T04:16:25;20.40;99.90
37460;DHT22;23318;50.966;5.284;2022-08-01T04:18:51;20.40;99.90
37460;DHT22;23318;50.966;5.284;2022-08-01T04:21:23;20.50;99.90
37460;DHT22;23318;50.966;5.284;2022-08-01T04:23:49;20.40;99.90
37460;DHT22;23318;50.966;5.284;2022-08-01T04:26:18;20.10;99.90
37460;DHT22;23318;50.966;5.284;2022-08-01T04:28:45;20.30;99.90
37460;DHT22;23318;50.966;5.284;2022-08-01T04:31:12;20.50;99.90
37460;DHT22;23318;50.966;5.284;2022-08-01T04:33:45;20.50;99.90
37460;DHT22;23318;50.966;5.284;2022-08-01T04:36:14;20.70;99.90
37460;DHT22;23318;50.966;5.284;2022-08-01T04:38:42;20.60;99.90
37460;DHT22;23318;50.966;5.284;2022-08-01T04:41:13;20.40;99.90
37460;DHT22;23318;50.966;5.284;2022-08-01T04:43:40;20.40;99.90
37460;DHT22;23318;50.966;5.284;2022-08-01T04:46:08;20.40;99.90
37460;DHT22;23318;50.966;5.284;2022-08-01T04:48:37;20.50;99.90
37460;DHT22;23318;50.966;5.284;2022-08-01T04:51:03;20.60;99.90
37460;DHT22;23318;50.966;5.284;2022-08-01T04:53:29;20.90;99.90
37460;DHT22;23318;50.966;5.284;2022-08-01T04:55:57;20.80;99.90
37460;DHT22;23318;50.966;5.284;2022-08-01T04:58:23;20.80;99.90
37460;DHT22;23318;50.966;5.284;2022-08-01T05:00:54;20.90;99.90
37460;DHT22;23318;50.966;5.284;2022-08-01T05:03:20;20.80;99.90
37460;DHT22;23318;50.966;5.284;2022-08-01T05:05:46;20.50;99.90
37460;DHT22;23318;50.966;5.284;2022-08-01T05:08:11;20.30;99.90
37460;DHT22;23318;50.966;5.284;2022-08-01T05:10:37;20.20;99.90
37460;DHT22;23318;50.966;5.284;2022-08-01T05:13:02;20.20;99.90
37460;DHT22;23318;50.966;5.284;2022-08-01T05:15:28;20.10;99.90
37460;DHT22;23318;50.966;5.284;2022-08-01T05:17:54;20.10;99.90
37460;DHT22;23318;50.966;5.284;2022-08-01T05:20:20;20.00;99.90
37460;DHT22;23318;50.966;5.284;2022-08-01T05:22:45;19.90;99.90
37460;DHT22;23318;50.966;5.284;2022-08-01T05:25:11;19.80;99.90
37460;DHT22;23318;50.966;5.284;2022-08-01T05:27:37;19.90;99.90
37460;DHT22;23318;50.966;5.284;2022-08-01T05:30:08;19.80;99.90
37460;DHT22;23318;50.966;5.284;2022-08-01T05:32:37;19.50;99.90
37460;DHT22;23318;50.966;5.284;2022-08-01T05:35:03;19.60;99.90
37460;DHT22;23318;50.966;5.284;2022-08-01T05:37:29;19.50;99.90
37460;DHT22;23318;50.966;5.284;2022-08-01T05:39:55;19.50;99.90
37460;DHT22;23318;50.966;5.284;2022-08-01T05:42:21;19.40;99.90
37460;DHT22;23318;50.966;5.284;2022-08-01T05:44:46;19.30;99.90
37460;DHT22;23318;50.966;5.284;2022-08-01T05:47:13;19.30;99.90
37460;DHT22;23318;50.966;5.284;2022-08-01T05:49:38;19.30;99.90
37460;DHT22;23318;50.966;5.284;2022-08-01T05:52:04;19.30;99.90
37460;DHT22;23318;50.966;5.284;2022-08-01T05:54:31;19.60;99.90
37460;DHT22;23318;50.966;5.284;2022-08-01T05:56:56;19.90;99.90
37460;DHT22;23318;50.966;5.284;2022-08-01T05:59:26;20.00;99.90
37460;DHT22;23318;50.966;5.284;2022-08-01T06:01:52;20.00;99.90
37460;DHT22;23318;50.966;5.284;2022-08-01T06:04:17;19.90;99.90
37460;DHT22;23318;50.966;5.284;2022-08-01T06:06:43;19.70;99.90
37460;DHT22;23318;50.966;5.284;2022-08-01T06:09:09;19.70;99.90
37460;DHT22;23318;50.966;5.284;2022-08-01T06:11:34;19.90;99.90
37460;DHT22;23318;50.966;5.284;2022-08-01T06:14:00;20.00;99.90
37460;DHT22;23318;50.966;5.284;2022-08-01T06:16:25;20.10;99.90
37460;DHT22;23318;50.966;5.284;2022-08-01T06:18:51;20.30;99.90
37460;DHT22;23318;50.966;5.284;2022-08-01T06:21:17;20.50;99.90
37460;DHT22;23318;50.966;5.284;2022-08-01T06:23:42;20.00;99.90
37460;DHT22;23318;50.966;5.284;2022-08-01T06:26:08;19.90;99.90
37460;DHT22;23318;50.966;5.284;2022-08-01T06:28:35;20.00;99.90
37460;DHT22;23318;50.966;5.284;2022-08-01T06:31:01;20.10;99.90
37460;DHT22;23318;50.966;5.284;2022-08-01T06:33:30;20.00;99.90
37460;DHT22;23318;50.966;5.284;2022-08-01T06:35:56;20.00;99.90
37460;DHT22;23318;50.966;5.284;2022-08-01T06:38:22;20.40;99.90
37460;DHT22;23318;50.966;5.284;2022-08-01T06:40:48;20.60;99.90
37460;DHT22;23318;50.966;5.284;2022-08-01T06:43:14;20.30;99.90
37460;DHT22;23318;50.966;5.284;2022-08-01T06:45:40;20.20;99.90
37460;DHT22;23318;50.966;5.284;2022-08-01T06:48:06;20.50;99.90
37460;DHT22;23318;50.966;5.284;2022-08-01T06:50:32;20.60;99.90
37460;DHT22;23318;50.966;5.284;2022-08-01T06:53:01;20.90;99.90
37460;DHT22;23318;50.966;5.284;2022-08-01T06:55:26;21.50;99.90
37460;DHT22;23318;50.966;5.284;2022-08-01T06:57:53;21.60;99.90
37460;DHT22;23318;50.966;5.284;2022-08-01T07:00:20;21.50;99.90
37460;DHT22;23318;50.966;5.284;2022-08-01T07:02:55;21.40;99.90
37460;DHT22;23318;50.966;5.284;2022-08-01T07:05:21;21.80;99.90
37460;DHT22;23318;50.966;5.284;2022-08-01T07:07:47;22.00;99.90
37460;DHT22;23318;50.966;5.284;2022-08-01T07:10:13;22.20;99.90
37460;DHT22;23318;50.966;5.284;2022-08-01T07:12:39;22.10;99.90
37460;DHT22;23318;50.966;5.284;2022-08-01T07:15:07;22.20;99.90
37460;DHT22;23318;50.966;5.284;2022-08-01T07:17:38;22.70;99.90
37460;DHT22;23318;50.966;5.284;2022-08-01T07:20:05;23.00;99.90
37460;DHT22;23318;50.966;5.284;2022-08-01T07:22:34;23.10;99.90
37460;DHT22;23318;50.966;5.284;2022-08-01T07:24:59;23.20;99.90
37460;DHT22;23318;50.966;5.284;2022-08-01T07:27:25;23.40;99.90
37460;DHT22;23318;50.966;5.284;2022-08-01T07:29:50;23.10;99.90
37460;DHT22;23318;50.966;5.284;2022-08-01T07:32:16;22.60;99.90
37460;DHT22;23318;50.966;5.284;2022-08-01T07:34:42;22.60;99.90
37460;DHT22;23318;50.966;5.284;2022-08-01T07:37:07;22.20;99.90
37460;DHT22;23318;50.966;5.284;2022-08-01T07:39:33;22.00;99.90
37460;DHT22;23318;50.966;5.284;2022-08-01T07:41:59;22.10;99.90
37460;DHT22;23318;50.966;5.284;2022-08-01T07:44:24;22.30;99.90
37460;DHT22;23318;50.966;5.284;2022-08-01T07:46:50;22.70;99.90
37460;DHT22;23318;50.966;5.284;2022-08-01T07:49:15;22.60;99.90
37460;DHT22;23318;50.966;5.284;2022-08-01T07:51:41;22.20;99.90
37460;DHT22;23318;50.966;5.284;2022-08-01T07:54:07;22.40;99.90
37460;DHT22;23318;50.966;5.284;2022-08-01T07:56:33;23.00;99.90
37460;DHT22;23318;50.966;5.284;2022-08-01T07:58:58;23.30;99.90
37460;DHT22;23318;50.966;5.284;2022-08-01T08:01:24;23.50;99.90
37460;DHT22;23318;50.966;5.284;2022-08-01T08:03:50;23.40;99.90
37460;DHT22;23318;50.966;5.284;2022-08-01T08:06:15;23.30;99.90
37460;DHT22;23318;50.966;5.284;2022-08-01T08:08:41;23.00;99.90
37460;DHT22;23318;50.966;5.284;2022-08-01T08:11:06;23.10;99.90
37460;DHT22;23318;50.966;5.284;2022-08-01T08:13:32;23.60;99.90
37460;DHT22;23318;50.966;5.284;2022-08-01T08:15:58;23.90;99.90
37460;DHT22;23318;50.966;5.284;2022-08-01T08:18:25;24.10;99.90
37460;DHT22;23318;50.966;5.284;2022-08-01T08:20:50;24.20;99.90
37460;DHT22;23318;50.966;5.284;2022-08-01T08:23:16;24.00;99.90
37460;DHT22;23318;50.966;5.284;2022-08-01T08:26:00;24.10;99.90
37460;DHT22;23318;50.966;5.284;2022-08-01T08:28:26;24.40;99.90
37460;DHT22;23318;50.966;5.284;2022-08-01T08:30:51;24.50;99.90
37460;DHT22;23318;50.966;5.284;2022-08-01T08:33:18;24.90;99.90
37460;DHT22;23318;50.966;5.284;2022-08-01T08:35:43;24.70;99.90
37460;DHT22;23318;50.966;5.284;2022-08-01T08:38:09;24.60;99.90
37460;DHT22;23318;50.966;5.284;2022-08-01T08:40:36;24.30;99.90
37460;DHT22;23318;50.966;5.284;2022-08-01T08:43:04;24.80;99.90
37460;DHT22;23318;50.966;5.284;2022-08-01T08:45:32;24.80;99.90
37460;DHT22;23318;50.966;5.284;2022-08-01T08:47:58;24.70;99.90
37460;DHT22;23318;50.966;5.284;2022-08-01T08:50:27;25.40;99.90
37460;DHT22;23318;50.966;5.284;2022-08-01T08:52:54;26.00;99.90
37460;DHT22;23318;50.966;5.284;2022-08-01T08:55:20;26.30;99.90
37460;DHT22;23318;50.966;5.284;2022-08-01T08:57:47;25.70;99.90
37460;DHT22;23318;50.966;5.284;2022-08-01T09:00:13;25.20;99.90
37460;DHT22;23318;50.966;5.284;2022-08-01T09:02:44;25.70;99.90
37460;DHT22;23318;50.966;5.284;2022-08-01T09:05:11;25.60;99.90
37460;DHT22;23318;50.966;5.284;2022-08-01T09:07:37;25.60;99.90
37460;DHT22;23318;50.966;5.284;2022-08-01T09:10:03;25.60;99.90
37460;DHT22;23318;50.966;5.284;2022-08-01T09:12:29;25.70;99.90
37460;DHT22;23318;50.966;5.284;2022-08-01T09:14:55;25.40;99.90
37460;DHT22;23318;50.966;5.284;2022-08-01T09:17:20;25.10;99.90
37460;DHT22;23318;50.966;5.284;2022-08-01T09:19:49;25.10;99.90
37460;DHT22;23318;50.966;5.284;2022-08-01T09:22:19;25.10;99.90
37460;DHT22;23318;50.966;5.284;2022-08-01T09:27:27;24.60;99.90
37460;DHT22;23318;50.966;5.284;2022-08-01T09:29:54;24.70;99.90
37460;DHT22;23318;50.966;5.284;2022-08-01T09:32:20;24.70;99.90
37460;DHT22;23318;50.966;5.284;2022-08-01T09:34:46;24.50;99.90
37460;DHT22;23318;50.966;5.284;2022-08-01T09:37:12;24.30;99.90
37460;DHT22;23318;50.966;5.284;2022-08-01T09:39:42;24.20;99.90
37460;DHT22;23318;50.966;5.284;2022-08-01T09:42:23;24.90;99.90
37460;DHT22;23318;50.966;5.284;2022-08-01T09:44:50;25.80;99.90
37460;DHT22;23318;50.966;5.284;2022-08-01T09:47:16;26.40;99.90
37460;DHT22;23318;50.966;5.284;2022-08-01T09:49:44;26.30;99.90
37460;DHT22;23318;50.966;5.284;2022-08-01T09:52:16;26.30;99.90
37460;DHT22;23318;50.966;5.284;2022-08-01T09:54:50;25.90;99.90
37460;DHT22;23318;50.966;5.284;2022-08-01T09:57:18;25.30;99.90
37460;DHT22;23318;50.966;5.284;2022-08-01T09:59:52;25.10;99.90
37460;DHT22;23318;50.966;5.284;2022-08-01T10:02:31;25.40;99.90
37460;DHT22;23318;50.966;5.284;2022-08-01T10:04:59;25.80;99.90
37460;DHT22;23318;50.966;5.284;2022-08-01T10:07:25;25.30;99.90
37460;DHT22;23318;50.966;5.284;2022-08-01T10:09:51;25.30;99.90
37460;DHT22;23318;50.966;5.284;2022-08-01T10:12:20;25.60;99.90
37460;DHT22;23318;50.966;5.284;2022-08-01T10:14:47;25.70;99.90
37460;DHT22;23318;50.966;5.284;2022-08-01T10:17:16;26.70;99.90
37460;DHT22;23318;50.966;5.284;2022-08-01T10:19:43;27.60;99.90
37460;DHT22;23318;50.966;5.284;2022-08-01T10:22:10;27.70;99.90
37460;DHT22;23318;50.966;5.284;2022-08-01T10:24:38;26.40;99.90
37460;DHT22;23318;50.966;5.284;2022-08-01T10:27:07;25.70;99.90
37460;DHT22;23318;50.966;5.284;2022-08-01T10:30:00;25.70;99.90
37460;DHT22;23318;50.966;5.284;2022-08-01T10:32:33;26.00;99.90
37460;DHT22;23318;50.966;5.284;2022-08-01T10:35:00;25.50;99.90
37460;DHT22;23318;50.966;5.284;2022-08-01T10:37:26;25.70;99.90
37460;DHT22;23318;50.966;5.284;2022-08-01T10:39:53;25.60;99.90
37460;DHT22;23318;50.966;5.284;2022-08-01T10:42:19;25.90;99.90
37460;DHT22;23318;50.966;5.284;2022-08-01T10:44:45;26.70;99.90
37460;DHT22;23318;50.966;5.284;2022-08-01T10:47:17;27.40;99.90
37460;DHT22;23318;50.966;5.284;2022-08-01T10:52:41;27.00;99.90
37460;DHT22;23318;50.966;5.284;2022-08-01T10:55:08;27.10;99.90
37460;DHT22;23318;50.966;5.284;2022-08-01T10:57:47;27.10;99.90
37460;DHT22;23318;50.966;5.284;2022-08-01T11:00:22;28.30;99.90
37460;DHT22;23318;50.966;5.284;2022-08-01T11:03:02;28.30;99.90
37460;DHT22;23318;50.966;5.284;2022-08-01T11:05:32;28.00;99.90
37460;DHT22;23318;50.966;5.284;2022-08-01T11:08:01;27.30;99.90
37460;DHT22;23318;50.966;5.284;2022-08-01T11:12:57;27.30;99.90
37460;DHT22;23318;50.966;5.284;2022-08-01T11:15:24;29.10;97.40
37460;DHT22;23318;50.966;5.284;2022-08-01T11:17:51;30.40;95.40
37460;DHT22;23318;50.966;5.284;2022-08-01T11:20:25;29.40;96.60
37460;DHT22;23318;50.966;5.284;2022-08-01T11:25:23;29.70;96.50
37460;DHT22;23318;50.966;5.284;2022-08-01T11:27:49;30.40;94.50
37460;DHT22;23318;50.966;5.284;2022-08-01T11:30:34;30.60;94.50
37460;DHT22;23318;50.966;5.284;2022-08-01T11:33:00;30.70;94.30
37460;DHT22;23318;50.966;5.284;2022-08-01T11:35:26;30.50;94.60
37460;DHT22;23318;50.966;5.284;2022-08-01T11:37:54;30.60;94.00
37460;DHT22;23318;50.966;5.284;2022-08-01T11:40:28;31.60;93.40
37460;DHT22;23318;50.966;5.284;2022-08-01T11:45:54;32.20;92.20
37460;DHT22;23318;50.966;5.284;2022-08-01T11:48:25;31.70;92.40
37460;DHT22;23318;50.966;5.284;2022-08-01T11:50:54;30.80;92.90
37460;DHT22;23318;50.966;5.284;2022-08-01T11:53:20;29.40;94.20
37460;DHT22;23318;50.966;5.284;2022-08-01T11:55:49;28.90;95.80
37460;DHT22;23318;50.966;5.284;2022-08-01T11:58:17;28.90;95.50
37460;DHT22;23318;50.966;5.284;2022-08-01T12:00:56;30.40;93.40
37460;DHT22;23318;50.966;5.284;2022-08-01T12:03:28;31.80;93.10
37460;DHT22;23318;50.966;5.284;2022-08-01T12:05:57;31.50;92.50
37460;DHT22;23318;50.966;5.284;2022-08-01T12:08:30;31.50;92.40
37460;DHT22;23318;50.966;5.284;2022-08-01T12:11:00;31.00;92.60
37460;DHT22;23318;50.966;5.284;2022-08-01T12:13:26;30.00;93.20
37460;DHT22;23318;50.966;5.284;2022-08-01T12:15:52;29.10;94.40
37460;DHT22;23318;50.966;5.284;2022-08-01T12:18:19;29.00;94.00
37460;DHT22;23318;50.966;5.284;2022-08-01T12:20:46;28.80;95.00
37460;DHT22;23318;50.966;5.284;2022-08-01T12:23:14;28.20;94.20
37460;DHT22;23318;50.966;5.284;2022-08-01T12:25:41;28.10;94.90
37460;DHT22;23318;50.966;5.284;2022-08-01T12:28:11;27.70;95.30
37460;DHT22;23318;50.966;5.284;2022-08-01T12:30:40;28.40;94.90
37460;DHT22;23318;50.966;5.284;2022-08-01T12:33:08;29.40;94.60
37460;DHT22;23318;50.966;5.284;2022-08-01T12:35:35;29.90;94.10
37460;DHT22;23318;50.966;5.284;2022-08-01T12:38:07;29.90;93.70
37460;DHT22;23318;50.966;5.284;2022-08-01T12:40:41;29.90;93.40
37460;DHT22;23318;50.966;5.284;2022-08-01T12:43:08;29.80;93.40
37460;DHT22;23318;50.966;5.284;2022-08-01T12:45:41;29.50;93.30
37460;DHT22;23318;50.966;5.284;2022-08-01T12:48:12;29.60;93.50
37460;DHT22;23318;50.966;5.284;2022-08-01T12:50:40;31.00;92.30
37460;DHT22;23318;50.966;5.284;2022-08-01T12:53:08;31.90;91.80
37460;DHT22;23318;50.966;5.284;2022-08-01T12:55:46;31.50;91.50
37460;DHT22;23318;50.966;5.284;2022-08-01T12:58:14;31.90;91.40
37460;DHT22;23318;50.966;5.284;2022-08-01T13:00:41;31.80;90.70
37460;DHT22;23318;50.966;5.284;2022-08-01T13:03:11;32.70;90.30
37460;DHT22;23318;50.966;5.284;2022-08-01T13:05:57;31.80;91.20
37460;DHT22;23318;50.966;5.284;2022-08-01T13:08:33;32.40;90.70
37460;DHT22;23318;50.966;5.284;2022-08-01T13:11:11;32.50;90.30
37460;DHT22;23318;50.966;5.284;2022-08-01T13:13:47;34.20;88.70
37460;DHT22;23318;50.966;5.284;2022-08-01T13:16:15;34.40;88.60
37460;DHT22;23318;50.966;5.284;2022-08-01T13:18:48;32.60;89.00
37460;DHT22;23318;50.966;5.284;2022-08-01T13:21:17;31.90;90.30
37460;DHT22;23318;50.966;5.284;2022-08-01T13:24:04;31.10;90.90
37460;DHT22;23318;50.966;5.284;2022-08-01T13:29:07;30.70;90.70
37460;DHT22;23318;50.966;5.284;2022-08-01T13:31:38;30.10;90.90
37460;DHT22;23318;50.966;5.284;2022-08-01T13:34:04;30.00;91.60
37460;DHT22;23318;50.966;5.284;2022-08-01T13:36:30;30.90;90.00
37460;DHT22;23318;50.966;5.284;2022-08-01T13:38:57;31.10;90.40
37460;DHT22;23318;50.966;5.284;2022-08-01T13:41:42;31.30;89.10
37460;DHT22;23318;50.966;5.284;2022-08-01T13:44:08;31.60;88.90
37460;DHT22;23318;50.966;5.284;2022-08-01T13:46:34;31.20;90.70
37460;DHT22;23318;50.966;5.284;2022-08-01T13:49:01;31.10;91.00
37460;DHT22;23318;50.966;5.284;2022-08-01T13:51:26;31.00;91.40
37460;DHT22;23318;50.966;5.284;2022-08-01T13:53:52;30.50;91.50
37460;DHT22;23318;50.966;5.284;2022-08-01T13:56:17;30.50;91.70
37460;DHT22;23318;50.966;5.284;2022-08-01T13:58:44;30.50;91.60
37460;DHT22;23318;50.966;5.284;2022-08-01T14:01:10;30.60;91.60
37460;DHT22;23318;50.966;5.284;2022-08-01T14:03:35;30.40;91.20
37460;DHT22;23318;50.966;5.284;2022-08-01T14:06:02;30.00;91.80
37460;DHT22;23318;50.966;5.284;2022-08-01T14:08:27;30.00;92.70
37460;DHT22;23318;50.966;5.284;2022-08-01T14:10:53;29.30;93.80
37460;DHT22;23318;50.966;5.284;2022-08-01T14:13:23;28.90;94.80
37460;DHT22;23318;50.966;5.284;2022-08-01T14:15:48;29.10;94.20
37460;DHT22;23318;50.966;5.284;2022-08-01T14:18:15;28.90;94.00
37460;DHT22;23318;50.966;5.284;2022-08-01T14:20:41;29.70;93.80
37460;DHT22;23318;50.966;5.284;2022-08-01T14:23:08;31.40;92.00
37460;DHT22;23318;50.966;5.284;2022-08-01T14:25:33;32.80;90.50
37460;DHT22;23318;50.966;5.284;2022-08-01T14:27:59;34.50;88.70
37460;DHT22;23318;50.966;5.284;2022-08-01T14:30:25;35.40;87.40
37460;DHT22;23318;50.966;5.284;2022-08-01T14:32:50;36.40;85.10
37460;DHT22;23318;50.966;5.284;2022-08-01T14:35:16;36.40;83.10
37460;DHT22;23318;50.966;5.284;2022-08-01T14:37:42;34.80;83.40
37460;DHT22;23318;50.966;5.284;2022-08-01T14:40:08;32.40;85.40
37460;DHT22;23318;50.966;5.284;2022-08-01T14:42:36;31.30;89.90
37460;DHT22;23318;50.966;5.284;2022-08-01T14:45:03;32.20;87.60
37460;DHT22;23318;50.966;5.284;2022-08-01T14:47:29;33.20;86.50
37460;DHT22;23318;50.966;5.284;2022-08-01T14:49:55;35.30;83.70
37460;DHT22;23318;50.966;5.284;2022-08-01T14:52:21;37.10;81.40
37460;DHT22;23318;50.966;5.284;2022-08-01T14:54:47;38.70;78.60
37460;DHT22;23318;50.966;5.284;2022-08-01T14:57:13;38.60;77.10
37460;DHT22;23318;50.966;5.284;2022-08-01T14:59:38;37.20;77.30
37460;DHT22;23318;50.966;5.284;2022-08-01T15:02:05;37.00;77.30
37460;DHT22;23318;50.966;5.284;2022-08-01T15:04:31;37.60;76.80
37460;DHT22;23318;50.966;5.284;2022-08-01T15:06:56;37.20;75.60
37460;DHT22;23318;50.966;5.284;2022-08-01T15:09:22;36.70;75.80
37460;DHT22;23318;50.966;5.284;2022-08-01T15:11:48;36.30;76.00
37460;DHT22;23318;50.966;5.284;2022-08-01T15:14:14;36.90;75.70
37460;DHT22;23318;50.966;5.284;2022-08-01T15:16:58;37.70;74.20
37460;DHT22;23318;50.966;5.284;2022-08-01T15:19:24;38.00;72.50
37460;DHT22;23318;50.966;5.284;2022-08-01T15:21:49;38.20;72.20
37460;DHT22;23318;50.966;5.284;2022-08-01T15:24:15;38.50;71.00
37460;DHT22;23318;50.966;5.284;2022-08-01T15:26:41;40.10;68.90
37460;DHT22;23318;50.966;5.284;2022-08-01T15:29:06;38.40;69.20
37460;DHT22;23318;50.966;5.284;2022-08-01T15:31:32;37.30;70.90
37460;DHT22;23318;50.966;5.284;2022-08-01T15:33:58;36.20;72.40
37460;DHT22;23318;50.966;5.284;2022-08-01T15:36:23;35.30;71.10
37460;DHT22;23318;50.966;5.284;2022-08-01T15:38:49;34.40;71.60
37460;DHT22;23318;50.966;5.284;2022-08-01T15:41:14;35.10;72.00
37460;DHT22;23318;50.966;5.284;2022-08-01T15:43:40;36.30;71.10
37460;DHT22;23318;50.966;5.284;2022-08-01T15:46:06;36.80;71.30
37460;DHT22;23318;50.966;5.284;2022-08-01T15:48:31;36.40;70.20
37460;DHT22;23318;50.966;5.284;2022-08-01T15:50:57;34.90;71.10
37460;DHT22;23318;50.966;5.284;2022-08-01T15:53:23;32.10;74.40
37460;DHT22;23318;50.966;5.284;2022-08-01T15:55:48;31.70;77.50
37460;DHT22;23318;50.966;5.284;2022-08-01T15:58:14;30.90;78.80
37460;DHT22;23318;50.966;5.284;2022-08-01T16:00:40;31.40;79.00